Time;durP1;ratioP1;P1;durP2;ratioP2;P2;SDS_P1;SDS_P2;PMS_P1;PMS_P2;Temp;Humidity;BMP_temperature;BMP_pressure;BME280_temperature;BME280_humidity;BME280_pressure;Samples;Min_cycle;Max_cycle;Signal;HPM_P1;HPM_P2
2021/03/11 00:00:56;;;;;;;8.40;7.55;;;;;;;2.18;67.82;94836.19;4841633;29;20050;-80
2021/03/11 00:03:22;;;;;;;8.23;6.90;;;;;;;2.23;67.86;94833.88;4932210;23;20706;-80
2021/03/11 00:05:48;;;;;;;8.68;7.00;;;;;;;2.28;67.37;94839.28;4973316;28;20039;-81
2021/03/11 00:08:13;;;;;;;15.10;7.88;;;;;;;2.33;67.79;94842.88;4955981;28;20031;-81
2021/03/11 00:10:45;;;;;;;8.65;7.68;;;;;;;2.35;66.72;94832.44;4931110;28;20034;-80
2021/03/11 00:13:10;;;;;;;9.37;7.57;;;;;;;2.38;66.73;94840.56;4972809;28;20027;-80
2021/03/11 00:15:40;;;;;;;13.52;8.88;;;;;;;2.44;67.23;94845.94;4982355;28;20688;-80
2021/03/11 00:18:06;;;;;;;20.42;12.20;;;;;;;2.35;67.10;94850.38;4962132;28;20502;-80
2021/03/11 00:20:31;;;;;;;22.05;12.05;;;;;;;2.48;66.90;94842.84;4971413;28;20043;-81
2021/03/11 00:22:57;;;;;;;15.88;11.07;;;;;;;2.56;65.69;94844.50;4971457;28;20593;-80
2021/03/11 00:25:23;;;;;;;13.55;9.73;;;;;;;2.52;66.33;94838.94;4938904;28;20114;-81
2021/03/11 00:30:22;;;;;;;17.90;11.32;;;;;;;2.61;65.67;94842.19;5012497;23;20059;-80
2021/03/11 00:32:48;;;;;;;20.55;13.63;;;;;;;2.64;65.92;94852.09;4952741;28;20023;-80
2021/03/11 00:35:14;;;;;;;21.60;14.10;;;;;;;2.70;65.72;94841.09;4935555;29;20031;-81
2021/03/11 00:37:39;;;;;;;18.80;12.70;;;;;;;2.76;64.50;94840.34;4939211;29;20119;-81
2021/03/11 00:40:06;;;;;;;21.98;12.55;;;;;;;2.72;65.78;94844.28;4919149;29;20046;-79
2021/03/11 00:42:32;;;;;;;24.00;13.10;;;;;;;2.70;65.64;94841.09;4940181;29;20039;-80
2021/03/11 00:44:57;;;;;;;24.25;12.60;;;;;;;2.87;64.89;94849.34;4917713;29;20422;-79
2021/03/11 00:47:23;;;;;;;18.40;11.13;;;;;;;2.91;63.94;94848.00;4941691;29;20035;-81
2021/03/11 00:49:48;;;;;;;16.67;10.95;;;;;;;2.93;64.42;94849.44;4940690;29;20055;-81
2021/03/11 00:52:14;;;;;;;15.75;10.70;;;;;;;2.87;64.63;94837.31;4981643;23;20478;-80
2021/03/11 00:54:40;;;;;;;17.05;11.70;;;;;;;2.93;64.76;94846.88;4996416;28;20094;-81
2021/03/11 00:57:06;;;;;;;12.30;9.40;;;;;;;2.97;64.37;94844.72;4961893;28;20125;-80
2021/03/11 00:59:31;;;;;;;15.10;10.38;;;;;;;2.94;63.88;94850.22;4925818;28;20031;-81
2021/03/11 01:01:57;;;;;;;13.75;10.27;;;;;;;2.92;64.42;94850.38;4960463;23;20044;-81
2021/03/11 01:04:22;;;;;;;7.68;6.75;;;;;;;2.95;63.44;94844.91;4926096;29;20036;-81
2021/03/11 01:06:48;;;;;;;6.93;6.22;;;;;;;2.95;63.10;94855.19;4893202;29;20050;-81
2021/03/11 01:09:13;;;;;;;7.93;6.50;;;;;;;2.84;64.21;94842.03;4905306;29;20032;-81
2021/03/11 01:11:39;;;;;;;9.80;7.80;;;;;;;2.88;64.60;94849.16;4891573;29;20047;-81
2021/03/11 01:14:04;;;;;;;8.20;7.40;;;;;;;2.84;63.82;94840.25;5033181;23;20047;-82
2021/03/11 01:16:29;;;;;;;10.85;8.27;;;;;;;2.82;64.37;94836.28;4975145;28;20034;-80
2021/03/11 01:18:55;;;;;;;16.33;9.57;;;;;;;2.77;64.72;94830.91;5745124;23;20354;-81
2021/03/11 01:21:20;;;;;;;12.63;10.02;;;;;;;2.78;64.40;94833.28;4897225;29;20068;-81
2021/03/11 01:23:46;;;;;;;8.63;7.72;;;;;;;2.66;64.82;94830.41;4900242;29;20036;-82
2021/03/11 01:26:11;;;;;;;9.35;7.45;;;;;;;2.68;64.28;94832.78;4916476;29;20696;-82
2021/03/11 01:28:37;;;;;;;8.27;7.22;;;;;;;2.67;64.46;94837.13;4916844;29;20086;-80
2021/03/11 01:31:02;;;;;;;10.30;7.22;;;;;;;2.65;64.72;94838.28;4917502;29;20501;-81
2021/03/11 01:33:28;;;;;;;9.25;7.75;;;;;;;2.66;65.25;94842.44;4898490;29;20516;-82
2021/03/11 01:35:53;;;;;;;9.00;8.05;;;;;;;2.70;64.40;94841.09;4899042;29;20032;-81
2021/03/11 01:38:31;;;;;;;15.85;11.57;;;;;;;2.66;65.16;94842.44;4882969;29;20032;-82
2021/03/11 01:40:56;;;;;;;12.65;9.15;;;;;;;2.63;64.35;94838.47;4883076;29;20040;-81
2021/03/11 01:43:22;;;;;;;15.43;10.45;;;;;;;2.66;65.26;94852.72;4865933;29;20375;-81
2021/03/11 01:45:47;;;;;;;15.07;10.60;;;;;;;2.74;64.18;94851.78;4899921;29;20043;-80
2021/03/11 01:48:13;;;;;;;20.95;10.77;;;;;;;2.65;64.18;94854.47;4967101;23;20059;-81
2021/03/11 01:50:39;;;;;;;16.73;9.93;;;;;;;2.74;63.70;94852.59;4886107;29;20057;-81
2021/03/11 01:53:04;;;;;;;19.85;12.48;;;;;;;2.73;64.52;94851.00;4872017;29;20037;-81
2021/03/11 01:55:30;;;;;;;20.48;11.13;;;;;;;2.80;63.68;94856.22;4853999;29;20027;-80
2021/03/11 01:57:55;;;;;;;19.38;11.40;;;;;;;2.80;63.76;94851.88;4887717;29;20028;-82
2021/03/11 02:00:21;;;;;;;13.48;9.57;;;;;;;2.86;63.39;94858.84;4869149;29;20037;-82
2021/03/11 02:02:47;;;;;;;26.85;11.25;;;;;;;2.95;63.35;94855.19;4871069;29;20029;-80
2021/03/11 02:05:14;;;;;;;19.08;10.57;;;;;;;2.94;62.80;94851.03;4855595;29;20063;-80
2021/03/11 02:07:40;;;;;;;17.80;10.15;;;;;;;2.97;63.24;94850.66;4886743;29;20067;-82
2021/03/11 02:10:13;;;;;;;21.92;11.80;;;;;;;2.90;62.93;94857.47;4909045;23;20045;-83
2021/03/11 02:12:42;;;;;;;21.17;11.98;;;;;;;2.90;63.15;94847.22;4944065;29;20047;-82
2021/03/11 02:15:14;;;;;;;22.80;11.18;;;;;;;2.87;63.20;94847.59;4925975;29;20051;-82
2021/03/11 02:20:50;;;;;;;17.83;10.07;;;;;;;2.70;63.77;94851.38;4954277;23;20052;-81
2021/03/11 02:23:53;;;;;;;19.10;10.63;;;;;;;2.71;63.83;94855.53;4899418;29;20051;-81
2021/03/11 02:26:40;;;;;;;13.50;9.07;;;;;;;2.74;62.88;94854.34;4919493;29;20046;-81
2021/03/11 02:29:16;;;;;;;15.30;9.82;;;;;;;2.65;63.19;94861.38;4935260;29;20118;-82
2021/03/11 02:31:41;;;;;;;15.25;10.00;;;;;;;2.81;62.63;94858.59;4913474;28;20079;-82
2021/03/11 02:34:15;;;;;;;12.93;8.63;;;;;;;2.84;62.26;94867.69;4927690;28;20032;-82
2021/03/11 02:36:40;;;;;;;12.73;8.75;;;;;;;2.87;62.23;94864.75;4943444;28;20099;-82
2021/03/11 02:39:07;;;;;;;15.75;9.20;;;;;;;2.84;62.58;94868.50;4974408;23;20035;-82
2021/03/11 02:41:32;;;;;;;15.32;9.88;;;;;;;2.87;62.85;94868.13;4953197;29;20035;-81
2021/03/11 02:43:58;;;;;;;9.65;8.00;;;;;;;2.79;62.83;94870.81;4944334;29;20046;-81
2021/03/11 02:46:23;;;;;;;10.20;7.47;;;;;;;2.92;62.00;94870.13;4919971;29;20072;-83
2021/03/11 02:48:50;;;;;;;8.07;6.28;;;;;;;2.93;62.34;94875.13;4897268;29;20411;-83
2021/03/11 02:51:15;;;;;;;6.88;5.70;;;;;;;2.91;62.19;94874.47;4915676;29;20103;-82
2021/03/11 02:53:41;;;;;;;7.28;6.10;;;;;;;2.93;61.56;94876.91;4912209;29;20142;-82
2021/03/11 02:56:07;;;;;;;8.75;5.78;;;;;;;2.89;62.15;94881.56;4898987;29;20086;-82
2021/03/11 02:58:33;;;;;;;9.63;6.75;;;;;;;2.78;63.02;94882.06;4927063;29;20032;-82
2021/03/11 03:01:01;;;;;;;11.07;8.50;;;;;;;2.82;62.11;94887.63;4930339;29;20070;-82
2021/03/11 03:03:28;;;;;;;8.88;7.20;;;;;;;2.91;61.64;94894.22;4927488;29;20039;-81
2021/03/11 03:05:54;;;;;;;8.65;7.07;;;;;;;2.86;61.80;94894.78;4912444;29;20043;-82
2021/03/11 03:08:19;;;;;;;7.55;5.57;;;;;;;2.81;61.60;94904.81;4921521;29;20057;-80
2021/03/11 03:10:45;;;;;;;6.10;5.50;;;;;;;2.79;61.62;94901.63;4898096;29;20032;-82
2021/03/11 03:13:14;;;;;;;8.55;6.55;;;;;;;2.74;62.21;94898.78;4897559;29;20035;-82
2021/03/11 03:15:40;;;;;;;7.55;6.35;;;;;;;2.79;62.09;94906.78;4928296;29;20039;-83
2021/03/11 03:18:10;;;;;;;11.98;7.78;;;;;;;2.82;62.13;94911.53;4894854;29;20035;-83
2021/03/11 03:20:35;;;;;;;13.55;8.68;;;;;;;2.82;61.94;94906.41;4932606;29;20054;-81
2021/03/11 03:25:36;;;;;;;12.32;8.93;;;;;;;2.82;61.86;94905.63;5225788;23;20459;-80
2021/03/11 03:28:04;;;;;;;15.35;9.75;;;;;;;2.83;61.52;94914.91;4925287;29;20493;-81
2021/03/11 03:30:30;;;;;;;11.32;7.97;;;;;;;2.87;61.53;94921.25;4919180;29;20036;-82
2021/03/11 03:32:55;;;;;;;12.40;9.48;;;;;;;2.77;63.07;94920.78;4905015;29;20040;-80
2021/03/11 03:35:22;;;;;;;11.43;9.30;;;;;;;2.70;63.23;94913.78;4937018;29;20111;-81
2021/03/11 03:37:49;;;;;;;11.13;9.07;;;;;;;2.85;62.69;94921.44;4894348;29;20114;-80
2021/03/11 03:40:14;;;;;;;8.13;5.88;;;;;;;2.83;61.58;94923.41;4902421;29;20481;-82
2021/03/11 03:42:55;;;;;;;7.05;6.35;;;;;;;2.80;61.98;94916.06;4955273;23;20138;-81
2021/03/11 03:45:31;;;;;;;6.13;5.50;;;;;;;2.83;62.03;94927.75;4955912;28;20031;-82
2021/03/11 03:47:57;;;;;;;6.35;5.85;;;;;;;2.88;60.71;94926.22;4953471;29;20122;-81
2021/03/11 03:50:22;;;;;;;6.60;5.90;;;;;;;2.95;60.77;94926.31;4921826;29;20590;-82
2021/03/11 03:52:48;;;;;;;5.35;4.90;;;;;;;2.91;60.17;94920.72;4936937;29;20027;-82
2021/03/11 03:55:14;;;;;;;5.85;5.30;;;;;;;2.89;60.94;94917.53;4937718;29;20027;-81
2021/03/11 03:57:42;;;;;;;5.93;5.43;;;;;;;2.79;61.60;94918.81;4921163;29;20031;-81
2021/03/11 04:00:08;;;;;;;11.02;5.93;;;;;;;2.70;61.81;94918.13;4936862;29;20059;-81
2021/03/11 04:02:34;;;;;;;7.60;6.88;;;;;;;2.81;62.01;94930.50;5027499;23;20055;-82
2021/03/11 04:05:01;;;;;;;18.05;10.50;;;;;;;2.80;62.43;94925.53;4922286;29;20035;-82
2021/03/11 04:07:27;;;;;;;23.77;15.55;;;;;;;2.79;62.24;94932.44;4909622;29;20035;-80
2021/03/11 04:09:52;;;;;;;18.25;11.98;;;;;;;2.83;61.82;94925.97;4923005;29;20119;-81
2021/03/11 04:12:18;;;;;;;8.82;7.80;;;;;;;2.85;61.97;94936.84;4909531;29;20034;-80
2021/03/11 04:14:44;;;;;;;16.30;9.95;;;;;;;2.73;62.99;94938.28;4924294;29;20530;-81
2021/03/11 04:17:16;;;;;;;14.00;10.35;;;;;;;2.77;62.92;94936.97;4930918;29;20044;-79
2021/03/11 04:19:41;;;;;;;17.58;11.77;;;;;;;2.77;62.45;94938.75;4933204;29;20040;-80
2021/03/11 04:22:07;;;;;;;25.80;14.27;;;;;;;2.86;61.88;94938.44;4924798;29;20035;-81
2021/03/11 04:24:33;;;;;;;25.15;14.77;;;;;;;2.85;62.16;94942.00;4924356;29;20040;-81
2021/03/11 04:26:59;;;;;;;25.92;12.13;;;;;;;2.79;62.43;94936.78;4908391;29;20028;-81
2021/03/11 04:29:25;;;;;;;26.00;15.27;;;;;;;2.79;61.87;94935.03;5000017;23;20042;-81
2021/03/11 04:31:50;;;;;;;25.20;14.40;;;;;;;2.81;62.73;94948.47;4980621;28;20030;-81
2021/03/11 04:34:16;;;;;;;21.58;13.43;;;;;;;2.84;62.21;94950.66;4980861;28;20038;-80
2021/03/11 04:36:41;;;;;;;27.73;13.45;;;;;;;2.79;61.89;94953.00;4973601;28;20050;-81
2021/03/11 04:39:07;;;;;;;30.75;15.38;;;;;;;2.80;61.97;94953.78;4957551;23;20050;-82
2021/03/11 04:41:32;;;;;;;26.35;15.52;;;;;;;2.85;62.17;94959.16;4929740;29;20032;-81
2021/03/11 04:44:00;;;;;;;30.65;17.40;;;;;;;2.75;62.87;94964.56;4912442;29;20039;-81
2021/03/11 04:46:25;;;;;;;30.70;17.33;;;;;;;2.64;63.49;94965.06;4898280;29;20028;-82
2021/03/11 04:48:51;;;;;;;44.38;21.52;;;;;;;2.71;63.90;94963.34;4933728;29;20042;-81
2021/03/11 04:51:16;;;;;;;27.98;17.77;;;;;;;2.68;63.74;94971.41;4916879;29;20063;-80
2021/03/11 04:53:42;;;;;;;27.55;15.98;;;;;;;2.80;62.98;94975.13;4909279;29;20039;-82
2021/03/11 04:56:10;;;;;;;39.17;22.52;;;;;;;2.82;63.22;94982.66;4910405;29;20039;-83
2021/03/11 04:58:39;;;;;;;35.55;20.38;;;;;;;2.88;61.99;94977.59;4929025;29;20047;-81
2021/03/11 05:01:12;;;;;;;29.20;17.98;;;;;;;2.97;61.95;94984.22;4892290;29;20039;-82
2021/03/11 05:03:38;;;;;;;23.00;10.98;;;;;;;2.98;60.82;94980.66;4912174;29;20118;-82
2021/03/11 05:06:04;;;;;;;17.15;10.07;;;;;;;2.99;57.73;94984.81;4909215;29;20063;-83
2021/03/11 05:08:29;;;;;;;5.00;4.50;;;;;;;2.78;56.88;94987.34;4908285;29;20032;-80
2021/03/11 05:10:55;;;;;;;7.57;4.03;;;;;;;2.59;56.59;94987.88;4907876;29;20644;-82
2021/03/11 05:13:20;;;;;;;7.38;6.03;;;;;;;2.39;58.65;94983.28;4911822;29;20036;-83
2021/03/11 05:15:46;;;;;;;13.57;5.13;;;;;;;2.34;58.05;94992.50;4925613;29;20043;-82
2021/03/11 05:18:11;;;;;;;4.82;4.32;;;;;;;2.28;58.08;94999.13;4926126;29;20459;-81
2021/03/11 05:20:36;;;;;;;4.90;4.38;;;;;;;2.24;58.41;94995.31;4924299;29;20051;-82
2021/03/11 05:23:02;;;;;;;5.65;4.22;;;;;;;2.29;58.69;95002.50;4923894;29;20023;-81
2021/03/11 05:25:28;;;;;;;8.18;4.57;;;;;;;2.35;57.80;95002.59;4926203;29;20043;-82
2021/03/11 05:27:54;;;;;;;4.35;4.00;;;;;;;2.47;57.50;95005.50;4911442;29;20518;-83
2021/03/11 05:30:22;;;;;;;4.22;3.38;;;;;;;2.39;56.87;95005.59;4924333;29;20048;-82
2021/03/11 05:32:48;;;;;;;3.80;3.50;;;;;;;2.37;57.33;95008.34;4910208;29;21162;-83
2021/03/11 05:35:13;;;;;;;2.88;2.67;;;;;;;2.28;55.69;95006.84;4924119;29;20028;-81
2021/03/11 05:40:11;;;;;;;3.28;3.08;;;;;;;2.06;57.31;95023.06;5532841;23;20052;-81
2021/03/11 05:42:37;;;;;;;3.40;3.10;;;;;;;2.10;57.93;95019.16;4927829;29;20047;-85
2021/03/11 05:45:07;;;;;;;4.25;3.42;;;;;;;2.25;58.05;95016.63;4913233;29;20039;-82
2021/03/11 05:47:33;;;;;;;3.90;3.55;;;;;;;2.36;58.12;95019.56;4936267;29;20036;-82
2021/03/11 05:50:13;;;;;;;4.97;4.53;;;;;;;2.48;58.06;95022.50;4920779;29;20031;-82
2021/03/11 05:52:39;;;;;;;6.97;4.45;;;;;;;2.54;58.00;95023.56;4921466;29;20036;-82
2021/03/11 05:55:05;;;;;;;6.45;5.38;;;;;;;2.57;55.99;95036.03;4893968;29;20038;-82
2021/03/11 05:57:31;;;;;;;6.07;4.88;;;;;;;2.54;56.35;95039.75;4937339;29;20055;-81
2021/03/11 05:59:57;;;;;;;9.85;6.82;;;;;;;2.62;57.64;95033.75;4922606;29;20534;-82
2021/03/11 06:02:23;;;;;;;12.40;6.57;;;;;;;2.60;58.79;95040.81;4924240;29;20043;-82
2021/03/11 06:04:49;;;;;;;8.00;5.90;;;;;;;2.78;57.35;95036.16;4907191;29;20464;-82
2021/03/11 06:07:15;;;;;;;11.85;6.50;;;;;;;2.95;56.88;95045.25;4923140;29;20055;-82
2021/03/11 06:09:47;;;;;;;6.85;5.00;;;;;;;3.00;56.03;95054.97;4953494;23;20499;-81
2021/03/11 06:12:12;;;;;;;8.48;5.57;;;;;;;3.00;56.53;95063.47;4949461;29;20110;-82
2021/03/11 06:14:38;;;;;;;11.90;5.70;;;;;;;3.10;56.52;95075.28;4943568;29;20528;-81
2021/03/11 06:17:06;;;;;;;7.70;5.50;;;;;;;3.24;55.99;95074.44;4942955;29;20035;-81
2021/03/11 06:19:32;;;;;;;7.75;6.05;;;;;;;3.34;56.36;95079.28;4955951;29;20039;-81
2021/03/11 06:21:57;;;;;;;9.40;5.05;;;;;;;3.29;55.21;95082.41;4948487;29;20127;-82
2021/03/11 06:24:23;;;;;;;4.30;3.45;;;;;;;3.22;54.21;95096.94;4935076;29;20035;-81
2021/03/11 06:26:49;;;;;;;5.82;5.15;;;;;;;3.26;55.27;95108.47;4923724;29;20036;-81
2021/03/11 06:29:17;;;;;;;11.63;7.55;;;;;;;3.28;56.40;95112.47;4970542;23;20058;-81
2021/03/11 06:31:43;;;;;;;10.52;7.20;;;;;;;3.37;54.97;95108.00;4940682;29;20036;-82
2021/03/11 06:34:22;;;;;;;6.50;5.38;;;;;;;3.25;53.93;95107.69;4922732;29;20056;-81
2021/03/11 06:36:47;;;;;;;6.47;4.55;;;;;;;3.00;54.28;95120.00;4941532;29;20028;-82
2021/03/11 06:39:42;;;;;;;5.80;4.50;;;;;;;2.63;55.50;95128.56;4952684;29;20555;-82
2021/03/11 06:42:08;;;;;;;7.00;5.38;;;;;;;2.32;57.12;95128.66;4936809;29;20113;-81
2021/03/11 06:44:41;;;;;;;9.43;6.30;;;;;;;2.27;58.41;95130.94;4956795;29;20028;-80
2021/03/11 06:47:18;;;;;;;9.48;6.20;;;;;;;2.44;57.70;95138.50;5066479;23;20071;-81
2021/03/11 06:50:00;;;;;;;10.48;7.35;;;;;;;2.50;57.91;95142.97;4940607;29;20070;-82
2021/03/11 06:52:26;;;;;;;7.35;5.68;;;;;;;2.34;56.18;95152.38;4920601;29;20121;-82
2021/03/11 06:55:03;;;;;;;11.05;7.50;;;;;;;2.35;57.26;95158.31;4918033;29;20028;-82
2021/03/11 06:57:29;;;;;;;9.73;6.68;;;;;;;2.31;57.86;95155.31;4934748;29;20051;-80
2021/03/11 06:59:56;;;;;;;12.20;8.00;;;;;;;2.44;58.82;95156.47;4917081;29;20471;-83
2021/03/11 07:02:22;;;;;;;11.57;6.20;;;;;;;2.57;56.57;95156.69;4938377;23;20039;-82
2021/03/11 07:04:47;;;;;;;9.88;6.38;;;;;;;2.59;56.47;95141.91;4954554;28;20050;-81
2021/03/11 07:07:25;;;;;;;6.72;5.72;;;;;;;2.84;56.77;95152.75;4955663;28;20034;-81
2021/03/11 07:12:21;;;;;;;14.80;6.88;;;;;;;3.14;56.96;95151.00;4924815;28;20118;-81
2021/03/11 07:14:48;;;;;;;10.25;6.57;;;;;;;3.21;56.46;95157.81;4936390;29;20475;-82
2021/03/11 07:20:10;;;;;;;11.80;7.43;;;;;;;3.25;55.58;95164.22;4978592;23;20052;-82
2021/03/11 07:22:37;;;;;;;10.40;6.38;;;;;;;3.46;55.45;95180.69;4931555;29;20483;-81
2021/03/11 07:25:04;;;;;;;9.40;6.72;;;;;;;3.61;55.10;95184.84;4914211;29;20059;-84
2021/03/11 07:27:41;;;;;;;14.50;6.53;;;;;;;3.67;54.97;95185.09;4935288;29;20031;-82
2021/03/11 07:30:07;;;;;;;8.45;5.90;;;;;;;3.41;54.08;95182.97;4918660;29;20074;-81
2021/03/11 07:32:34;;;;;;;8.48;6.45;;;;;;;3.19;55.87;95189.81;4918519;29;20120;-81
2021/03/11 07:35:01;;;;;;;8.98;6.50;;;;;;;3.33;55.80;95188.22;4903351;29;20039;-81
2021/03/11 07:37:27;;;;;;;9.30;5.72;;;;;;;3.40;53.86;95192.47;4932292;29;20530;-81
2021/03/11 07:39:53;;;;;;;7.78;5.40;;;;;;;3.41;53.81;95213.81;4918869;29;20039;-81
2021/03/11 07:44:46;;;;;;;7.30;4.82;;;;;;;3.43;55.41;95206.75;4933007;29;20047;-82
2021/03/11 07:47:12;;;;;;;6.10;4.68;;;;;;;3.58;54.09;95215.25;4938557;29;20408;-82
2021/03/11 07:49:38;;;;;;;5.00;4.15;;;;;;;3.58;53.97;95216.06;4922096;29;20038;-82
2021/03/11 07:52:04;;;;;;;4.55;4.15;;;;;;;3.68;54.43;95223.50;4927888;29;20476;-83
2021/03/11 07:54:33;;;;;;;4.47;4.07;;;;;;;3.75;54.81;95221.00;4941553;29;20574;-81
2021/03/11 07:56:58;;;;;;;5.22;4.30;;;;;;;3.98;54.34;95226.81;4911272;28;20861;-81
2021/03/11 07:59:24;;;;;;;5.50;4.30;;;;;;;4.13;52.71;95226.78;4937892;29;20038;-83
2021/03/11 08:04:30;;;;;;;5.55;4.47;;;;;;;3.86;53.20;95223.91;5522848;23;20405;-81
2021/03/11 08:07:22;;;;;;;7.20;4.90;;;;;;;4.04;53.60;95241.53;4916295;29;20087;-82
2021/03/11 08:09:55;;;;;;;5.22;4.72;;;;;;;4.08;53.15;95245.34;4921378;29;20523;-83
2021/03/11 08:12:26;;;;;;;5.82;4.40;;;;;;;4.18;53.28;95248.41;4985159;23;20026;-82
2021/03/11 08:14:52;;;;;;;6.15;4.75;;;;;;;3.84;53.69;95251.59;4954743;28;20044;-83
2021/03/11 08:17:33;;;;;;;4.38;3.97;;;;;;;3.55;53.47;95251.59;4950689;28;20147;-83
2021/03/11 08:19:59;;;;;;;5.20;4.53;;;;;;;3.57;55.06;95249.63;4932711;29;20035;-82
2021/03/11 08:22:56;;;;;;;5.50;3.85;;;;;;;3.61;53.15;95256.03;4912771;29;20040;-83
2021/03/11 08:25:40;;;;;;;8.07;4.78;;;;;;;3.70;54.68;95249.03;4937652;29;20051;-83
2021/03/11 08:28:09;;;;;;;4.90;4.18;;;;;;;3.61;53.33;95258.63;4934943;29;20492;-82
2021/03/11 08:30:38;;;;;;;5.72;4.78;;;;;;;3.39;55.26;95262.84;4943982;29;20032;-80
2021/03/11 08:33:06;;;;;;;10.52;5.18;;;;;;;3.61;54.93;95262.00;4948771;29;20038;-81
2021/03/11 08:35:35;;;;;;;5.70;5.03;;;;;;;3.74;55.48;95270.84;5175121;23;20099;-83
2021/03/11 08:38:00;;;;;;;5.03;4.53;;;;;;;3.42;54.27;95266.88;4933444;29;20040;-82
2021/03/11 08:40:36;;;;;;;5.13;4.63;;;;;;;3.66;55.19;95268.38;4918953;29;20032;-82
2021/03/11 08:43:01;;;;;;;5.47;4.97;;;;;;;3.67;53.54;95259.66;4917237;29;20036;-82
2021/03/11 08:45:36;;;;;;;5.78;5.18;;;;;;;3.78;54.69;95261.81;4932600;29;20203;-83
2021/03/11 08:48:15;;;;;;;7.85;4.45;;;;;;;3.91;54.83;95267.91;4942347;29;20036;-83
2021/03/11 08:50:45;;;;;;;5.10;4.55;;;;;;;4.20;55.29;95267.06;4904767;29;20408;-81
2021/03/11 08:53:10;;;;;;;6.20;4.85;;;;;;;4.45;53.92;95264.16;4918637;29;20110;-81
2021/03/11 08:55:42;;;;;;;4.80;4.40;;;;;;;4.73;53.03;95271.97;4937092;29;20035;-82
2021/03/11 08:58:27;;;;;;;4.55;4.15;;;;;;;5.06;51.04;95277.41;4920696;29;20042;-80
2021/03/11 09:00:56;;;;;;;6.30;4.38;;;;;;;5.18;50.67;95278.47;4921488;29;20039;-82
2021/03/11 09:03:38;;;;;;;4.57;4.15;;;;;;;5.17;50.64;95279.47;4936625;29;20082;-81
2021/03/11 09:08:30;;;;;;;5.00;4.50;;;;;;;4.67;50.08;95273.50;4932940;23;20048;-82
2021/03/11 09:11:12;;;;;;;4.18;3.78;;;;;;;4.62;50.79;95283.56;4891002;29;20124;-80
2021/03/11 09:13:43;;;;;;;6.57;3.97;;;;;;;4.75;51.42;95283.69;4911008;29;20110;-81
2021/03/11 09:16:09;;;;;;;5.10;4.20;;;;;;;4.83;50.70;95288.69;4881546;29;20115;-81
2021/03/11 09:18:35;;;;;;;3.92;3.60;;;;;;;4.77;50.49;95301.53;4894950;29;20036;-80
2021/03/11 09:23:53;;;;;;;5.63;4.95;;;;;;;4.60;52.49;95298.41;4902164;29;20537;-81
2021/03/11 09:26:29;;;;;;;5.57;4.80;;;;;;;4.64;52.43;95299.63;4910951;29;20056;-80
2021/03/11 09:28:57;;;;;;;8.13;5.22;;;;;;;4.64;52.37;95302.19;4881073;29;20044;-80
2021/03/11 09:31:26;;;;;;;4.72;4.25;;;;;;;4.48;50.97;95305.00;4907666;29;20043;-80
2021/03/11 09:33:52;;;;;;;4.68;4.10;;;;;;;4.25;51.90;95307.72;4890789;29;20450;-81
2021/03/11 09:36:21;;;;;;;5.03;4.50;;;;;;;4.24;52.16;95307.91;4913358;29;20123;-82
2021/03/11 09:38:48;;;;;;;7.65;4.20;;;;;;;4.29;52.21;95301.22;5054871;23;20483;-82
2021/03/11 09:41:23;;;;;;;6.13;4.95;;;;;;;4.63;52.10;95308.31;4938833;29;20118;-80
2021/03/11 09:43:49;;;;;;;6.07;5.47;;;;;;;4.85;51.58;95303.19;4919400;29;20107;-81
2021/03/11 09:46:15;;;;;;;6.10;5.18;;;;;;;5.07;50.96;95304.78;4920742;29;20388;-82
2021/03/11 09:48:51;;;;;;;5.75;4.88;;;;;;;5.23;49.76;95308.88;4933340;29;20031;-81
2021/03/11 09:51:28;;;;;;;5.45;4.95;;;;;;;5.26;50.54;95308.50;4933328;29;20416;-82
2021/03/11 09:54:04;;;;;;;5.30;4.80;;;;;;;5.49;48.86;95303.13;4935356;29;20114;-82
2021/03/11 09:56:48;;;;;;;4.50;4.20;;;;;;;5.30;48.04;95312.31;5049224;23;20051;-81
2021/03/11 09:59:14;;;;;;;4.13;3.80;;;;;;;5.20;48.15;95312.59;4929057;29;20028;-80
2021/03/11 10:01:46;;;;;;;4.03;3.72;;;;;;;5.12;48.97;95316.13;4931357;29;20122;-82
2021/03/11 10:04:24;;;;;;;5.07;4.68;;;;;;;4.99;48.92;95316.00;4909166;29;20036;-82
2021/03/11 10:06:57;;;;;;;5.85;4.82;;;;;;;4.85;50.72;95326.38;4944336;29;20059;-80
2021/03/11 10:09:23;;;;;;;4.72;4.32;;;;;;;4.80;50.09;95327.72;4930220;29;20039;-80
2021/03/11 10:11:52;;;;;;;5.28;4.20;;;;;;;4.75;50.46;95319.75;4928272;29;20047;-82
2021/03/11 10:14:26;;;;;;;5.50;4.90;;;;;;;5.00;52.19;95329.69;4946973;23;20043;-82
2021/03/11 10:17:15;;;;;;;5.25;4.70;;;;;;;4.88;50.06;95338.88;4930565;29;20119;-83
2021/03/11 10:19:42;;;;;;;4.65;4.10;;;;;;;4.75;49.93;95337.78;4943142;29;20043;-80
2021/03/11 10:22:14;;;;;;;5.40;4.68;;;;;;;4.78;50.68;95341.78;4906169;29;20044;-81
2021/03/11 10:24:50;;;;;;;;;;;;;;;4.87;51.60;95350.16;4933939;29;20059;-81
2021/03/11 10:27:32;;;;;;;4.65;4.10;;;;;;;4.69;51.14;95356.53;4917046;29;19918;-80
2021/03/11 10:30:10;;;;;;;5.28;4.50;;;;;;;4.67;51.80;95361.06;4913039;29;20508;-80
2021/03/11 10:32:37;;;;;;;4.85;4.03;;;;;;;4.65;51.45;95363.03;4938674;29;20051;-82
2021/03/11 10:35:04;;;;;;;4.90;4.43;;;;;;;4.42;52.35;95367.53;4932077;29;20035;-82
2021/03/11 10:37:31;;;;;;;5.35;4.85;;;;;;;4.27;53.10;95374.47;4937216;29;20028;-81
2021/03/11 10:40:01;;;;;;;5.22;4.55;;;;;;;4.34;53.30;95381.28;4937753;29;20040;-81
2021/03/11 10:42:39;;;;;;;5.43;4.70;;;;;;;4.36;53.20;95375.94;4936560;29;20099;-82
2021/03/11 10:45:05;;;;;;;5.68;4.55;;;;;;;4.47;51.63;95378.06;4934984;29;20043;-82
2021/03/11 10:47:31;;;;;;;5.97;5.05;;;;;;;4.55;53.20;95388.25;4919015;29;20048;-81
2021/03/11 10:50:24;;;;;;;5.72;5.05;;;;;;;4.47;52.35;95373.72;4921557;29;20039;-81
2021/03/11 10:52:51;;;;;;;5.63;5.13;;;;;;;4.26;52.48;95378.00;5067011;23;20086;-81
2021/03/11 10:58:03;;;;;;;4.82;4.47;;;;;;;4.27;51.89;95379.63;4947198;28;20052;-82
2021/03/11 11:00:34;;;;;;;5.63;5.07;;;;;;;4.07;51.65;95372.44;4962357;28;20059;-81
2021/03/11 11:03:01;;;;;;;7.60;5.70;;;;;;;4.15;52.58;95395.50;4931881;29;20036;-80
2021/03/11 11:05:26;;;;;;;7.05;5.68;;;;;;;4.04;52.94;95395.13;4955812;29;20067;-81
2021/03/11 11:07:52;;;;;;;4.40;4.10;;;;;;;4.09;52.59;95398.78;4950233;29;20065;-80
2021/03/11 11:10:20;;;;;;;6.00;5.35;;;;;;;4.09;52.68;95398.00;4948020;29;20032;-80
2021/03/11 11:12:48;;;;;;;5.70;4.60;;;;;;;3.97;52.65;95395.03;4943156;29;20036;-82
2021/03/11 11:15:15;;;;;;;6.40;5.07;;;;;;;4.04;53.00;95387.41;4916764;29;20255;-82
2021/03/11 11:17:44;;;;;;;6.63;5.25;;;;;;;3.94;52.42;95385.09;4940383;29;20068;-82
2021/03/11 11:20:11;;;;;;;5.18;4.65;;;;;;;4.05;52.52;95387.22;4938841;29;20024;-81
2021/03/11 11:22:36;;;;;;;5.75;5.18;;;;;;;4.25;51.90;95379.78;4939640;29;20510;-81
2021/03/11 11:25:03;;;;;;;8.52;6.32;;;;;;;4.47;51.89;95376.31;4941641;23;20055;-80
2021/03/11 11:27:29;;;;;;;7.00;5.90;;;;;;;4.68;52.15;95372.97;4926120;29;20036;-80
2021/03/11 11:29:54;;;;;;;5.65;5.13;;;;;;;4.47;54.04;95390.94;4930213;29;20480;-79
2021/03/11 11:32:30;;;;;;;6.88;5.68;;;;;;;4.44;56.50;95375.88;4931498;29;20040;-78
2021/03/11 11:34:56;;;;;;;6.47;5.78;;;;;;;4.67;55.60;95376.53;4899986;29;20043;-80
2021/03/11 11:37:25;;;;;;;14.25;6.40;;;;;;;4.95;55.29;95378.41;4917360;29;20050;-80
2021/03/11 11:39:50;;;;;;;11.27;8.25;;;;;;;5.12;55.31;95372.03;4915021;29;20036;-81
2021/03/11 11:42:16;;;;;;;8.55;7.05;;;;;;;5.21;54.07;95373.53;4913765;29;20551;-80
2021/03/11 11:44:42;;;;;;;7.82;7.03;;;;;;;5.25;54.52;95374.75;4917131;29;20121;-81
2021/03/11 11:47:08;;;;;;;7.30;6.30;;;;;;;5.42;54.12;95370.13;4927296;29;20050;-79
2021/03/11 11:49:33;;;;;;;7.38;6.22;;;;;;;5.48;52.57;95363.41;4912827;29;20045;-79
2021/03/11 11:52:00;;;;;;;6.70;6.10;;;;;;;5.57;51.12;95357.16;4931636;29;20043;-81
2021/03/11 11:54:27;;;;;;;6.65;5.97;;;;;;;5.73;51.01;95354.31;4934266;28;20027;-85
2021/03/11 11:56:53;;;;;;;7.57;6.85;;;;;;;5.98;50.23;95360.63;4948227;28;20048;-87
2021/03/11 11:59:19;;;;;;;8.20;6.55;;;;;;;6.15;49.74;95352.59;4894256;29;20384;-87
2021/03/11 12:01:45;;;;;;;9.45;5.88;;;;;;;6.38;49.06;95339.41;4895363;29;20028;-87
2021/03/11 12:04:11;;;;;;;7.53;6.15;;;;;;;6.53;48.46;95340.06;4926821;29;20539;-83
2021/03/11 12:06:38;;;;;;;8.30;6.32;;;;;;;6.74;48.22;95344.28;4929128;29;20460;-82
2021/03/11 12:09:04;;;;;;;16.20;8.20;;;;;;;7.06;48.54;95359.09;4917195;29;20044;-82
2021/03/11 12:11:30;;;;;;;28.73;13.52;;;;;;;7.45;47.42;95347.97;4930826;29;20042;-82